createdAt,value
2018-07-26T00:02:22.949Z,5.70
2018-07-26T00:04:50.615Z,5.87
2018-07-26T00:07:18.181Z,6.05
2018-07-26T00:09:45.746Z,5.90
2018-07-26T00:12:13.701Z,5.58
2018-07-26T00:14:41.287Z,6.12
2018-07-26T00:17:09.140Z,5.80
2018-07-26T00:19:36.695Z,5.75
2018-07-26T00:22:04.745Z,6.50
2018-07-26T00:24:32.319Z,6.45
2018-07-26T00:26:59.857Z,6.60
2018-07-26T00:29:27.416Z,6.53
2018-07-26T00:31:55.005Z,6.90
2018-07-26T00:34:22.545Z,6.53
2018-07-26T00:36:50.096Z,7.22
2018-07-26T00:39:17.646Z,6.72
2018-07-26T00:41:45.192Z,6.85
2018-07-26T00:44:12.761Z,6.42
2018-07-26T00:46:40.349Z,6.62
2018-07-26T00:49:07.926Z,6.30
2018-07-26T00:51:35.484Z,6.60
2018-07-26T00:54:03.066Z,6.85
2018-07-26T00:56:30.609Z,6.65
2018-07-26T00:58:58.178Z,7.08
2018-07-26T01:01:25.745Z,8.20
2018-07-26T01:03:53.277Z,8.35
2018-07-26T01:06:20.835Z,8.65
2018-07-26T01:08:48.383Z,8.05
2018-07-26T01:11:15.946Z,7.00
2018-07-26T01:13:43.610Z,7.20
2018-07-26T01:16:11.244Z,7.50
2018-07-26T01:18:38.842Z,6.30
2018-07-26T01:21:06.404Z,7.10
2018-07-26T01:23:33.968Z,7.27
2018-07-26T01:26:01.546Z,7.20
2018-07-26T01:28:29.098Z,7.50
2018-07-26T01:30:56.649Z,7.08
2018-07-26T01:33:24.198Z,7.10
2018-07-26T01:35:51.778Z,7.07
2018-07-26T01:38:19.374Z,7.17
2018-07-26T01:40:46.933Z,7.20
2018-07-26T01:43:49.764Z,7.22
2018-07-26T01:46:18.661Z,6.70
2018-07-26T01:48:46.205Z,6.77
2018-07-26T01:51:13.760Z,7.13
2018-07-26T01:53:41.843Z,7.40
2018-07-26T01:56:09.934Z,6.97
2018-07-26T01:58:37.489Z,7.07
2018-07-26T02:01:06.073Z,6.87
2018-07-26T02:03:33.830Z,7.00
2018-07-26T02:06:01.913Z,6.97
2018-07-26T02:08:29.661Z,6.60
2018-07-26T02:10:57.460Z,6.93
2018-07-26T02:13:25.008Z,7.20
2018-07-26T02:15:52.862Z,6.87
2018-07-26T02:18:20.442Z,6.83
2018-07-26T02:20:48.006Z,6.70
2018-07-26T02:23:15.573Z,6.40
2018-07-26T02:25:43.144Z,7.30
2018-07-26T02:28:10.796Z,6.77
2018-07-26T02:30:38.661Z,6.70
2018-07-26T02:33:06.809Z,7.03
2018-07-26T02:35:34.734Z,6.63
2018-07-26T02:38:02.575Z,7.57
2018-07-26T02:40:30.541Z,6.93
2018-07-26T02:42:58.403Z,6.93
2018-07-26T02:45:26.258Z,6.50
2018-07-26T02:47:54.105Z,7.63
2018-07-26T02:50:22.125Z,7.80
2018-07-26T02:52:50.049Z,7.50
2018-07-26T02:55:17.977Z,7.80
2018-07-26T02:57:45.855Z,7.47
2018-07-26T03:00:13.677Z,6.97
2018-07-26T03:02:41.522Z,7.63
2018-07-26T03:05:09.649Z,8.47
2018-07-26T03:07:37.679Z,7.33
2018-07-26T03:10:06.019Z,7.40
2018-07-26T03:12:33.953Z,7.80
2018-07-26T03:15:01.833Z,7.87
2018-07-26T03:17:29.722Z,7.87
2018-07-26T03:19:57.525Z,8.77
2018-07-26T03:22:25.349Z,8.30
2018-07-26T03:24:53.383Z,8.30
2018-07-26T03:27:21.368Z,8.13
2018-07-26T03:29:49.299Z,7.60
2018-07-26T03:32:17.227Z,8.63
2018-07-26T03:34:45.038Z,8.47
2018-07-26T03:37:12.869Z,8.20
2018-07-26T03:39:40.751Z,7.97
2018-07-26T03:42:08.625Z,8.60
2018-07-26T03:44:36.500Z,8.83
2018-07-26T03:47:04.485Z,8.77
2018-07-26T03:49:32.362Z,10.17
2018-07-26T03:52:00.147Z,9.00
2018-07-26T03:54:28.067Z,8.80
2018-07-26T03:56:56.044Z,9.43
2018-07-26T03:59:24.066Z,9.13
2018-07-26T04:01:52.033Z,9.47
2018-07-26T04:04:19.871Z,8.87
2018-07-26T04:06:47.820Z,9.17
2018-07-26T04:09:15.728Z,9.40
2018-07-26T04:11:44.670Z,8.97
2018-07-26T04:14:12.603Z,9.13
2018-07-26T04:16:40.482Z,9.10
2018-07-26T04:19:09.406Z,8.83
2018-07-26T04:21:37.715Z,9.00
2018-07-26T04:24:05.614Z,9.13
2018-07-26T04:26:33.919Z,9.33
2018-07-26T04:29:01.840Z,9.63
2018-07-26T04:31:29.674Z,9.37
2018-07-26T04:33:57.534Z,8.87
2018-07-26T04:36:25.458Z,9.77
2018-07-26T04:38:53.385Z,9.23
2018-07-26T04:41:21.325Z,9.08
2018-07-26T04:43:49.206Z,10.13
2018-07-26T04:46:17.107Z,9.95
2018-07-26T04:48:44.910Z,9.47
2018-07-26T04:51:12.822Z,9.17
2018-07-26T04:53:40.628Z,10.50
2018-07-26T04:56:08.463Z,10.00
2018-07-26T04:58:36.273Z,10.43
2018-07-26T05:01:04.138Z,10.10
2018-07-26T05:03:32.039Z,9.98
2018-07-26T05:05:59.893Z,10.30
2018-07-26T05:08:27.695Z,9.35
2018-07-26T05:10:55.508Z,8.80
2018-07-26T05:13:23.357Z,8.00
2018-07-26T05:15:51.218Z,8.63
2018-07-26T05:18:19.028Z,7.83
2018-07-26T05:20:46.866Z,6.75
2018-07-26T05:23:14.710Z,6.80
2018-07-26T05:25:42.602Z,6.60
2018-07-26T05:28:10.458Z,6.30
2018-07-26T05:30:38.338Z,5.97
2018-07-26T05:33:06.407Z,6.80
2018-07-26T05:35:34.205Z,6.60
2018-07-26T05:38:02.083Z,6.53
2018-07-26T05:40:30.050Z,5.95
2018-07-26T05:42:57.825Z,6.10
2018-07-26T05:45:25.696Z,6.87
2018-07-26T05:47:53.495Z,6.60
2018-07-26T05:50:21.277Z,7.83
2018-07-26T05:52:49.132Z,6.60
2018-07-26T05:55:16.925Z,7.35
2018-07-26T05:57:44.790Z,7.20
2018-07-26T06:00:13.565Z,7.50
2018-07-26T06:02:41.921Z,8.95
2018-07-26T06:05:09.992Z,8.58
2018-07-26T06:07:37.762Z,8.03
2018-07-26T06:10:06.710Z,8.20
2018-07-26T06:12:34.486Z,7.72
2018-07-26T06:15:02.242Z,8.60
2018-07-26T06:17:30.002Z,8.13
2018-07-26T06:19:57.806Z,7.80
2018-07-26T06:22:25.590Z,7.87
2018-07-26T06:24:53.397Z,7.65
2018-07-26T06:27:21.190Z,7.90
2018-07-26T06:29:48.943Z,7.90
2018-07-26T06:32:16.713Z,7.15
2018-07-26T06:34:44.517Z,7.62
2018-07-26T06:37:12.326Z,7.12
2018-07-26T06:39:40.106Z,7.42
2018-07-26T06:42:09.362Z,7.62
2018-07-26T06:44:37.252Z,7.30
2018-07-26T06:47:05.537Z,7.83
2018-07-26T06:49:33.343Z,8.25
2018-07-26T06:52:01.145Z,7.87
2018-07-26T06:54:28.965Z,7.80
2018-07-26T06:56:56.737Z,7.80
2018-07-26T06:59:24.477Z,7.20
2018-07-26T07:01:52.269Z,7.15
2018-07-26T07:04:20.100Z,7.50
2018-07-26T07:06:47.850Z,6.80
2018-07-26T07:09:15.690Z,7.20
2018-07-26T07:11:43.576Z,7.08
2018-07-26T07:14:11.455Z,6.95
2018-07-26T07:16:39.391Z,7.28
2018-07-26T07:19:07.642Z,6.80
2018-07-26T07:21:35.419Z,6.90
2018-07-26T07:24:03.203Z,6.40
2018-07-26T07:26:31.001Z,7.05
2018-07-26T07:28:58.833Z,6.62
2018-07-26T07:31:26.707Z,6.60
2018-07-26T07:33:54.589Z,6.83
2018-07-26T07:36:22.478Z,6.37
2018-07-26T07:38:50.177Z,6.53
2018-07-26T07:41:18.246Z,6.08
2018-07-26T07:43:46.046Z,6.42
2018-07-26T07:46:13.898Z,6.95
2018-07-26T07:48:41.631Z,6.50
2018-07-26T07:51:09.439Z,6.80
2018-07-26T07:53:37.233Z,6.40
2018-07-26T07:56:05.026Z,6.85
2018-07-26T07:58:32.900Z,6.70
2018-07-26T08:01:00.702Z,6.30
2018-07-26T08:03:28.577Z,6.20
2018-07-26T08:05:56.384Z,6.55
2018-07-26T08:08:24.150Z,6.35
2018-07-26T08:10:52.031Z,6.20
2018-07-26T08:13:19.769Z,6.50
2018-07-26T08:15:47.590Z,6.33
2018-07-26T08:18:15.334Z,6.30
2018-07-26T08:20:43.054Z,5.80
2018-07-26T08:23:10.822Z,6.10
2018-07-26T08:25:38.664Z,6.03
2018-07-26T08:28:06.442Z,6.15
2018-07-26T08:30:34.233Z,6.72
2018-07-26T08:33:02.103Z,5.92
2018-07-26T08:35:29.945Z,6.55
2018-07-26T08:37:57.894Z,5.70
2018-07-26T08:40:25.685Z,6.17
2018-07-26T08:42:53.854Z,5.62
2018-07-26T08:45:21.639Z,5.75
2018-07-26T08:47:49.349Z,5.15
2018-07-26T08:50:17.207Z,5.12
2018-07-26T08:52:45.088Z,5.15
2018-07-26T08:55:12.908Z,4.80
2018-07-26T08:57:40.655Z,4.42
2018-07-26T09:00:08.791Z,4.60
2018-07-26T09:02:36.586Z,4.67
2018-07-26T09:05:05.247Z,5.15
2018-07-26T09:07:32.998Z,4.53
2018-07-26T09:10:00.916Z,4.58
2018-07-26T09:12:28.582Z,4.70
2018-07-26T09:14:56.402Z,5.08
2018-07-26T09:17:24.434Z,5.15
2018-07-26T09:19:52.388Z,3.87
2018-07-26T09:22:20.166Z,4.30
2018-07-26T09:24:47.981Z,4.33
2018-07-26T09:27:15.806Z,6.58
2018-07-26T09:29:43.530Z,5.62
2018-07-26T09:32:11.559Z,4.85
2018-07-26T09:34:39.410Z,4.20
2018-07-26T09:37:07.181Z,4.40
2018-07-26T09:39:34.950Z,4.75
2018-07-26T09:42:02.774Z,4.33
2018-07-26T09:44:30.560Z,4.40
2018-07-26T09:46:58.409Z,4.37
2018-07-26T09:49:26.236Z,5.08
2018-07-26T09:51:54.125Z,4.83
2018-07-26T09:54:21.902Z,4.92
2018-07-26T09:56:49.608Z,4.85
2018-07-26T09:59:17.480Z,5.17
2018-07-26T10:01:45.360Z,5.37
2018-07-26T10:04:13.066Z,5.03
2018-07-26T10:06:40.865Z,4.60
2018-07-26T10:09:10.393Z,5.15
2018-07-26T10:11:38.250Z,5.40
2018-07-26T10:14:06.188Z,4.85
2018-07-26T10:16:34.230Z,4.72
2018-07-26T10:19:02.026Z,4.58
2018-07-26T10:21:29.931Z,4.85
2018-07-26T10:23:57.765Z,4.70
2018-07-26T10:26:25.608Z,4.85
2018-07-26T10:28:53.374Z,4.70
2018-07-26T10:31:21.341Z,4.92
2018-07-26T10:33:49.146Z,5.10
2018-07-26T10:36:16.962Z,4.85
2018-07-26T10:38:44.750Z,4.90
2018-07-26T10:41:12.455Z,5.05
2018-07-26T10:43:40.214Z,4.87
2018-07-26T10:46:07.969Z,5.20
2018-07-26T10:48:35.726Z,5.12
2018-07-26T10:51:03.562Z,5.15
2018-07-26T10:53:31.326Z,4.83
2018-07-26T10:55:59.062Z,5.20
2018-07-26T10:58:26.859Z,5.20
2018-07-26T11:00:59.402Z,4.87
2018-07-26T11:03:27.385Z,5.42
2018-07-26T11:05:55.194Z,5.40
2018-07-26T11:08:39.337Z,5.25
2018-07-26T11:11:26.614Z,5.40
2018-07-26T11:13:54.363Z,5.30
2018-07-26T11:16:22.195Z,5.45
2018-07-26T11:18:50.015Z,5.33
2018-07-26T11:21:17.765Z,5.17
2018-07-26T11:23:45.538Z,5.62
2018-07-26T11:26:13.494Z,5.72
2018-07-26T11:28:41.350Z,5.58
2018-07-26T11:37:40.137Z,5.97
2018-07-26T11:40:07.943Z,5.25
2018-07-26T11:42:35.738Z,5.75
2018-07-26T11:45:04.524Z,5.85
2018-07-26T11:47:32.290Z,5.72
2018-07-26T11:50:00.101Z,5.70
2018-07-26T11:52:27.869Z,5.60
2018-07-26T11:54:55.772Z,5.62
2018-07-26T11:57:23.518Z,5.90
2018-07-26T11:59:51.405Z,5.95
2018-07-26T12:02:19.286Z,6.30
2018-07-26T12:04:47.133Z,6.58
2018-07-26T12:07:15.014Z,6.62
2018-07-26T12:09:42.818Z,6.22
2018-07-26T12:12:11.337Z,5.97
2018-07-26T12:14:39.830Z,5.95
2018-07-26T12:17:07.570Z,6.05
2018-07-26T12:19:35.432Z,6.00
2018-07-26T12:22:03.167Z,6.50
2018-07-26T12:24:31.077Z,6.22
2018-07-26T12:26:58.907Z,6.85
2018-07-26T12:29:26.765Z,5.85
2018-07-26T12:31:54.568Z,6.53
2018-07-26T12:34:22.343Z,6.05
2018-07-26T12:36:50.158Z,5.58
2018-07-26T12:39:17.947Z,5.33
2018-07-26T12:41:45.719Z,5.83
2018-07-26T12:44:13.480Z,5.53
2018-07-26T12:46:41.267Z,6.12
2018-07-26T12:49:09.077Z,6.75
2018-07-26T12:51:36.949Z,6.00
2018-07-26T12:54:04.855Z,5.92
2018-07-26T12:56:32.675Z,6.17
2018-07-26T12:59:00.450Z,5.80
2018-07-26T13:01:28.227Z,6.92
2018-07-26T13:03:56.708Z,6.97
2018-07-26T13:06:24.500Z,7.12
2018-07-26T13:08:52.730Z,7.15
2018-07-26T13:11:20.548Z,6.97
2018-07-26T13:13:48.323Z,7.33
2018-07-26T13:16:16.437Z,7.85
2018-07-26T13:18:44.242Z,7.72
2018-07-26T13:21:12.182Z,7.12
2018-07-26T13:23:40.007Z,7.62
2018-07-26T13:26:07.789Z,7.55
2018-07-26T13:28:35.563Z,7.60
2018-07-26T13:31:03.387Z,7.90
2018-07-26T13:33:31.180Z,7.42
2018-07-26T13:35:58.993Z,7.45
2018-07-26T13:38:26.870Z,7.72
2018-07-26T13:40:54.793Z,7.85
2018-07-26T13:43:22.661Z,7.97
2018-07-26T13:45:50.505Z,7.92
2018-07-26T13:48:18.427Z,7.65
2018-07-26T13:50:46.205Z,7.78
2018-07-26T13:53:14.181Z,7.58
2018-07-26T13:55:42.061Z,7.22
2018-07-26T13:58:10.003Z,7.30
2018-07-26T14:00:37.883Z,7.58
2018-07-26T14:03:05.751Z,7.15
2018-07-26T14:05:33.602Z,6.90
2018-07-26T14:08:01.431Z,7.22
2018-07-26T14:10:29.263Z,7.00
2018-07-26T14:12:57.138Z,7.17
2018-07-26T14:15:24.961Z,7.20
2018-07-26T14:17:52.821Z,7.03
2018-07-26T14:20:27.162Z,6.87
2018-07-26T14:22:54.923Z,6.60
2018-07-26T14:25:22.758Z,6.37
2018-07-26T14:27:58.211Z,5.87
2018-07-26T14:30:26.052Z,6.15
2018-07-26T14:32:53.848Z,5.97
2018-07-26T14:35:21.633Z,5.90
2018-07-26T14:37:49.467Z,6.17
2018-07-26T14:40:17.346Z,6.15
2018-07-26T14:42:45.165Z,5.80
2018-07-26T14:45:13.039Z,6.40
2018-07-26T14:47:40.826Z,6.17
2018-07-26T14:50:08.668Z,5.80
2018-07-26T14:52:36.415Z,5.72
2018-07-26T14:55:04.334Z,5.42
2018-07-26T14:57:32.098Z,5.42
2018-07-26T14:59:59.888Z,5.47
2018-07-26T15:02:27.748Z,5.20
2018-07-26T15:04:55.582Z,5.10
2018-07-26T15:07:23.439Z,5.20
2018-07-26T15:09:51.340Z,5.20
2018-07-26T15:12:19.056Z,5.03
2018-07-26T15:14:46.817Z,5.35
2018-07-26T15:17:14.641Z,5.03
2018-07-26T15:19:42.422Z,5.53
2018-07-26T15:22:10.357Z,4.90
2018-07-26T15:24:38.246Z,4.87
2018-07-26T15:27:06.140Z,5.05
2018-07-26T15:29:33.977Z,5.50
2018-07-26T15:32:01.725Z,5.30
2018-07-26T15:34:29.459Z,5.22
2018-07-26T15:36:57.246Z,5.22
2018-07-26T15:39:25.001Z,4.72
2018-07-26T15:41:52.940Z,5.17
2018-07-26T15:44:20.857Z,4.85
2018-07-26T15:46:48.717Z,5.00
2018-07-26T15:49:16.523Z,4.85
2018-07-26T15:51:44.343Z,5.15
2018-07-26T15:54:12.151Z,5.20
2018-07-26T15:56:39.881Z,4.90
2018-07-26T15:59:07.667Z,5.40
2018-07-26T16:01:35.485Z,5.80
2018-07-26T16:04:03.363Z,5.30
2018-07-26T16:06:31.178Z,5.87
2018-07-26T16:08:59.001Z,5.50
2018-07-26T16:11:26.826Z,4.97
2018-07-26T16:13:54.643Z,5.10
2018-07-26T16:16:22.536Z,5.60
2018-07-26T16:18:50.448Z,5.40
2018-07-26T16:21:18.343Z,5.78
2018-07-26T16:23:46.296Z,5.53
2018-07-26T16:26:14.203Z,5.25
2018-07-26T16:28:42.109Z,5.50
2018-07-26T16:31:09.934Z,5.28
2018-07-26T16:33:37.847Z,5.00
2018-07-26T16:36:05.635Z,5.40
2018-07-26T16:38:33.497Z,5.20
2018-07-26T16:41:01.285Z,5.60
2018-07-26T16:43:29.151Z,5.50
2018-07-26T16:45:56.981Z,5.05
2018-07-26T16:48:24.796Z,6.12
2018-07-26T16:50:55.650Z,5.35
2018-07-26T16:53:23.499Z,5.40
2018-07-26T16:55:51.362Z,5.17
2018-07-26T16:58:19.270Z,5.35
2018-07-26T17:00:47.113Z,5.20
2018-07-26T17:03:15.080Z,5.00
2018-07-26T17:05:42.940Z,5.62
2018-07-26T17:08:10.954Z,5.60
2018-07-26T17:10:38.900Z,5.47
2018-07-26T17:13:06.814Z,5.53
2018-07-26T17:15:34.739Z,5.47
2018-07-26T17:18:02.653Z,5.75
2018-07-26T17:20:30.413Z,5.95
2018-07-26T17:22:58.294Z,5.28
2018-07-26T17:25:26.148Z,5.42
2018-07-26T17:27:55.278Z,5.67
2018-07-26T17:30:23.247Z,5.95
2018-07-26T17:32:51.180Z,6.08
2018-07-26T17:35:19.309Z,5.70
2018-07-26T17:37:47.143Z,5.45
2018-07-26T17:40:15.046Z,5.35
2018-07-26T17:42:42.885Z,5.65
2018-07-26T17:45:11.417Z,5.90
2018-07-26T17:47:39.709Z,6.17
2018-07-26T17:50:09.138Z,6.03
2018-07-26T17:52:36.965Z,5.50
2018-07-26T17:55:05.198Z,5.55
2018-07-26T17:57:33.033Z,5.40
2018-07-26T18:00:00.939Z,5.62
2018-07-26T18:02:28.773Z,5.78
2018-07-26T18:04:56.567Z,5.80
2018-07-26T18:07:24.445Z,5.70
2018-07-26T18:09:52.425Z,5.47
2018-07-26T18:12:20.646Z,5.78
2018-07-26T18:14:48.538Z,5.70
2018-07-26T18:17:16.352Z,5.83
2018-07-26T18:19:44.214Z,5.83
2018-07-26T18:22:11.977Z,5.60
2018-07-26T18:24:39.752Z,6.28
2018-07-26T18:27:07.657Z,6.05
2018-07-26T18:29:35.659Z,6.17
2018-07-26T18:32:03.649Z,5.83
2018-07-26T18:34:31.415Z,5.62
2018-07-26T18:36:59.226Z,5.37
2018-07-26T18:39:27.074Z,5.40
2018-07-26T18:41:54.903Z,5.60
2018-07-26T18:44:22.685Z,5.95
2018-07-26T18:46:50.423Z,5.72
2018-07-26T18:49:18.311Z,5.47
2018-07-26T18:51:46.121Z,5.67
2018-07-26T18:54:13.969Z,5.97
2018-07-26T18:56:41.775Z,5.40
2018-07-26T18:59:09.610Z,5.80
2018-07-26T19:01:37.382Z,5.47
2018-07-26T19:04:05.228Z,5.42
2018-07-26T19:06:33.046Z,5.50
2018-07-26T19:09:00.960Z,6.22
2018-07-26T19:11:28.865Z,5.97
2018-07-26T19:13:56.783Z,5.90
2018-07-26T19:16:24.577Z,6.80
2018-07-26T19:18:52.383Z,7.65
2018-07-26T19:21:20.222Z,6.37
2018-07-26T19:23:48.121Z,5.75
2018-07-26T19:26:15.851Z,7.12
2018-07-26T19:28:43.691Z,6.08
2018-07-26T19:31:11.518Z,6.15
2018-07-26T19:33:39.393Z,6.33
2018-07-26T19:36:07.314Z,6.08
2018-07-26T19:38:35.221Z,5.60
2018-07-26T19:41:03.119Z,5.72
2018-07-26T19:43:30.947Z,5.28
2018-07-26T19:45:58.819Z,5.60
2018-07-26T19:48:32.971Z,5.55
2018-07-26T19:51:01.099Z,5.60
2018-07-26T19:53:28.944Z,5.58
2018-07-26T19:55:56.834Z,5.83
2018-07-26T19:58:24.720Z,5.87
2018-07-26T20:00:52.606Z,5.40
2018-07-26T20:03:20.461Z,5.75
2018-07-26T20:05:48.344Z,5.55
2018-07-26T20:08:16.122Z,5.55
2018-07-26T20:10:44.039Z,5.50
2018-07-26T20:13:11.895Z,5.47
2018-07-26T20:15:39.787Z,5.80
2018-07-26T20:18:07.659Z,5.83
2018-07-26T20:20:35.499Z,5.62
2018-07-26T20:23:03.374Z,5.55
2018-07-26T20:25:31.259Z,6.25
2018-07-26T20:27:59.158Z,5.90
2018-07-26T20:30:26.962Z,5.62
2018-07-26T20:32:54.836Z,5.58
2018-07-26T20:35:22.742Z,6.22
2018-07-26T20:37:50.609Z,5.83
2018-07-26T20:40:18.370Z,6.20
2018-07-26T20:42:46.247Z,6.42
2018-07-26T20:45:14.151Z,5.80
2018-07-26T20:47:42.012Z,5.90
2018-07-26T20:50:09.889Z,6.25
2018-07-26T20:52:38.082Z,5.83
2018-07-26T20:55:05.981Z,5.72
2018-07-26T20:57:33.797Z,6.17
2018-07-26T21:00:01.893Z,6.03
2018-07-26T21:02:29.766Z,5.85
2018-07-26T21:05:24.073Z,6.45
2018-07-26T21:07:51.877Z,5.97
2018-07-26T21:10:19.772Z,5.97
2018-07-26T21:12:47.740Z,5.78
2018-07-26T21:15:15.671Z,6.05
2018-07-26T21:17:43.516Z,6.00
2018-07-26T21:20:11.473Z,6.22
2018-07-26T21:22:47.898Z,5.87
2018-07-26T21:25:22.880Z,6.00
2018-07-26T21:28:09.778Z,5.80
2018-07-26T21:30:37.614Z,5.78
2018-07-26T21:33:05.504Z,5.87
2018-07-26T21:35:33.285Z,6.08
2018-07-26T21:41:03.366Z,6.40
2018-07-26T21:43:31.178Z,6.45
2018-07-26T21:45:59.009Z,6.87
2018-07-26T21:48:26.918Z,6.75
2018-07-26T21:50:54.756Z,6.10
2018-07-26T21:53:26.197Z,6.35
2018-07-26T21:59:00.081Z,5.87
2018-07-26T22:01:27.975Z,6.50
2018-07-26T22:03:55.851Z,6.67
2018-07-26T22:06:23.726Z,6.33
2018-07-26T22:08:51.609Z,6.45
2018-07-26T22:14:31.101Z,6.85
2018-07-26T22:16:58.947Z,6.97
2018-07-26T22:19:26.827Z,6.55
2018-07-26T22:21:54.723Z,6.90
2018-07-26T22:24:22.536Z,6.75
2018-07-26T22:26:50.349Z,6.70
2018-07-26T22:29:18.271Z,6.42
2018-07-26T22:31:46.165Z,6.87
2018-07-26T22:34:14.018Z,7.35
2018-07-26T22:36:41.873Z,6.22
2018-07-26T22:39:10.757Z,6.95
2018-07-26T22:41:38.766Z,6.97
2018-07-26T22:44:06.674Z,6.42
2018-07-26T22:46:34.503Z,6.70
2018-07-26T22:49:02.386Z,6.47
2018-07-26T22:51:30.298Z,7.42
2018-07-26T22:53:58.241Z,6.78
2018-07-26T22:56:26.041Z,7.12
2018-07-26T22:58:53.937Z,7.12
2018-07-26T23:01:21.784Z,6.50
2018-07-26T23:03:49.638Z,6.65
2018-07-26T23:06:17.547Z,7.37
2018-07-26T23:08:45.686Z,6.78
2018-07-26T23:11:13.757Z,6.95
2018-07-26T23:13:41.637Z,6.62
2018-07-26T23:16:09.530Z,7.15
2018-07-26T23:18:37.399Z,7.53
2018-07-26T23:21:05.469Z,7.08
2018-07-26T23:23:33.243Z,7.60
2018-07-26T23:26:01.091Z,7.00
2018-07-26T23:28:28.950Z,7.87
2018-07-26T23:30:56.829Z,8.33
2018-07-26T23:33:24.706Z,8.15
2018-07-26T23:35:53.361Z,8.30
2018-07-26T23:38:21.225Z,8.25
2018-07-26T23:40:49.073Z,7.83
2018-07-26T23:43:16.946Z,7.40
2018-07-26T23:45:44.739Z,7.37
2018-07-26T23:48:12.529Z,8.13
2018-07-26T23:50:40.434Z,7.70
2018-07-26T23:53:08.296Z,7.25
2018-07-26T23:55:36.135Z,6.95
2018-07-26T23:58:04.054Z,6.60
